sensor_id;sensor_type;location;lat;lon;timestamp;P1;durP1;ratioP1;P2;durP2;ratioP2
34144;SDS011;69555;53.014;8.886;2023-10-09T00:02:07;9.40;;;3.63;;
34144;SDS011;69555;53.014;8.886;2023-10-09T00:04:41;8.07;;;3.17;;
34144;SDS011;69555;53.014;8.886;2023-10-09T00:07:28;11.90;;;3.08;;
34144;SDS011;69555;53.014;8.886;2023-10-09T00:09:56;7.63;;;3.03;;
34144;SDS011;69555;53.014;8.886;2023-10-09T00:12:23;9.07;;;3.28;;
34144;SDS011;69555;53.014;8.886;2023-10-09T00:14:52;10.88;;;3.75;;
34144;SDS011;69555;53.014;8.886;2023-10-09T00:17:21;9.05;;;3.17;;
34144;SDS011;69555;53.014;8.886;2023-10-09T00:19:48;6.30;;;2.88;;
34144;SDS011;69555;53.014;8.886;2023-10-09T00:22:16;8.32;;;2.90;;
34144;SDS011;69555;53.014;8.886;2023-10-09T00:24:56;7.20;;;2.92;;
34144;SDS011;69555;53.014;8.886;2023-10-09T00:27:47;9.82;;;3.17;;
34144;SDS011;69555;53.014;8.886;2023-10-09T00:30:18;11.75;;;3.17;;
34144;SDS011;69555;53.014;8.886;2023-10-09T00:32:45;8.35;;;3.13;;
34144;SDS011;69555;53.014;8.886;2023-10-09T00:35:37;9.25;;;3.10;;
34144;SDS011;69555;53.014;8.886;2023-10-09T00:38:13;8.38;;;4.18;;
34144;SDS011;69555;53.014;8.886;2023-10-09T00:40:58;7.38;;;2.75;;
34144;SDS011;69555;53.014;8.886;2023-10-09T00:43:29;6.47;;;2.45;;
34144;SDS011;69555;53.014;8.886;2023-10-09T00:45:57;7.05;;;3.08;;
34144;SDS011;69555;53.014;8.886;2023-10-09T00:48:36;8.35;;;3.15;;
34144;SDS011;69555;53.014;8.886;2023-10-09T00:51:09;6.93;;;2.75;;
34144;SDS011;69555;53.014;8.886;2023-10-09T00:53:57;6.32;;;2.58;;
34144;SDS011;69555;53.014;8.886;2023-10-09T00:56:33;14.52;;;3.03;;
34144;SDS011;69555;53.014;8.886;2023-10-09T00:59:14;9.18;;;3.10;;
34144;SDS011;69555;53.014;8.886;2023-10-09T01:01:42;7.45;;;3.08;;
34144;SDS011;69555;53.014;8.886;2023-10-09T01:04:33;6.15;;;2.33;;
34144;SDS011;69555;53.014;8.886;2023-10-09T01:07:06;8.30;;;3.15;;
34144;SDS011;69555;53.014;8.886;2023-10-09T01:09:42;8.50;;;3.40;;
34144;SDS011;69555;53.014;8.886;2023-10-09T01:12:21;9.93;;;2.83;;
34144;SDS011;69555;53.014;8.886;2023-10-09T01:14:47;8.82;;;3.10;;
34144;SDS011;69555;53.014;8.886;2023-10-09T01:17:21;10.13;;;2.92;;
34144;SDS011;69555;53.014;8.886;2023-10-09T01:20:02;5.28;;;2.70;;
34144;SDS011;69555;53.014;8.886;2023-10-09T01:22:31;9.10;;;3.50;;
34144;SDS011;69555;53.014;8.886;2023-10-09T01:24:58;7.15;;;3.13;;
34144;SDS011;69555;53.014;8.886;2023-10-09T01:27:24;9.63;;;3.15;;
34144;SDS011;69555;53.014;8.886;2023-10-09T01:29:58;5.18;;;2.78;;
34144;SDS011;69555;53.014;8.886;2023-10-09T01:32:25;12.15;;;3.22;;
34144;SDS011;69555;53.014;8.886;2023-10-09T01:34:53;8.50;;;2.70;;
34144;SDS011;69555;53.014;8.886;2023-10-09T01:37:21;10.35;;;3.20;;
34144;SDS011;69555;53.014;8.886;2023-10-09T01:40:03;13.40;;;3.55;;
34144;SDS011;69555;53.014;8.886;2023-10-09T01:42:56;9.90;;;3.22;;
34144;SDS011;69555;53.014;8.886;2023-10-09T01:45:23;8.85;;;3.05;;
34144;SDS011;69555;53.014;8.886;2023-10-09T01:47:49;12.68;;;4.07;;
34144;SDS011;69555;53.014;8.886;2023-10-09T01:50:19;8.23;;;3.63;;
34144;SDS011;69555;53.014;8.886;2023-10-09T01:52:57;7.00;;;3.13;;
34144;SDS011;69555;53.014;8.886;2023-10-09T01:55:29;9.05;;;3.55;;
34144;SDS011;69555;53.014;8.886;2023-10-09T01:58:03;5.22;;;3.05;;
34144;SDS011;69555;53.014;8.886;2023-10-09T02:01:03;5.95;;;3.10;;
34144;SDS011;69555;53.014;8.886;2023-10-09T02:03:32;11.77;;;2.88;;
34144;SDS011;69555;53.014;8.886;2023-10-09T02:06:02;13.85;;;3.95;;
34144;SDS011;69555;53.014;8.886;2023-10-09T02:08:50;9.43;;;3.50;;
34144;SDS011;69555;53.014;8.886;2023-10-09T02:11:18;9.93;;;3.88;;
34144;SDS011;69555;53.014;8.886;2023-10-09T02:14:12;8.65;;;3.40;;
34144;SDS011;69555;53.014;8.886;2023-10-09T02:17:01;9.45;;;3.72;;
34144;SDS011;69555;53.014;8.886;2023-10-09T02:19:32;10.32;;;3.72;;
34144;SDS011;69555;53.014;8.886;2023-10-09T02:22:08;9.98;;;3.38;;
34144;SDS011;69555;53.014;8.886;2023-10-09T02:24:41;7.85;;;3.70;;
34144;SDS011;69555;53.014;8.886;2023-10-09T02:27:15;10.88;;;3.65;;
34144;SDS011;69555;53.014;8.886;2023-10-09T02:29:49;17.50;;;5.05;;
34144;SDS011;69555;53.014;8.886;2023-10-09T02:32:16;7.65;;;3.42;;
34144;SDS011;69555;53.014;8.886;2023-10-09T02:35:02;6.88;;;4.05;;
34144;SDS011;69555;53.014;8.886;2023-10-09T02:37:49;9.23;;;4.03;;
34144;SDS011;69555;53.014;8.886;2023-10-09T02:40:17;14.25;;;4.00;;
34144;SDS011;69555;53.014;8.886;2023-10-09T02:43:03;10.30;;;3.80;;
34144;SDS011;69555;53.014;8.886;2023-10-09T02:45:29;10.90;;;4.10;;
34144;SDS011;69555;53.014;8.886;2023-10-09T02:48:01;10.57;;;4.13;;
34144;SDS011;69555;53.014;8.886;2023-10-09T02:50:48;11.20;;;4.28;;
34144;SDS011;69555;53.014;8.886;2023-10-09T02:53:15;10.57;;;4.25;;
34144;SDS011;69555;53.014;8.886;2023-10-09T02:55:45;9.10;;;4.35;;
34144;SDS011;69555;53.014;8.886;2023-10-09T02:58:30;10.88;;;3.88;;
34144;SDS011;69555;53.014;8.886;2023-10-09T03:01:17;15.07;;;5.07;;
34144;SDS011;69555;53.014;8.886;2023-10-09T03:03:44;14.15;;;4.43;;
34144;SDS011;69555;53.014;8.886;2023-10-09T03:08:45;13.23;;;4.18;;
34144;SDS011;69555;53.014;8.886;2023-10-09T03:11:13;12.60;;;4.90;;
34144;SDS011;69555;53.014;8.886;2023-10-09T03:13:45;9.57;;;4.93;;
34144;SDS011;69555;53.014;8.886;2023-10-09T03:16:11;11.45;;;4.10;;
34144;SDS011;69555;53.014;8.886;2023-10-09T03:18:56;14.95;;;4.70;;
34144;SDS011;69555;53.014;8.886;2023-10-09T03:21:23;8.63;;;3.85;;
34144;SDS011;69555;53.014;8.886;2023-10-09T03:23:50;6.78;;;3.63;;
34144;SDS011;69555;53.014;8.886;2023-10-09T03:26:17;11.13;;;4.50;;
34144;SDS011;69555;53.014;8.886;2023-10-09T03:28:47;12.30;;;4.22;;
34144;SDS011;69555;53.014;8.886;2023-10-09T03:31:14;10.02;;;4.47;;
34144;SDS011;69555;53.014;8.886;2023-10-09T03:33:41;5.65;;;3.67;;
34144;SDS011;69555;53.014;8.886;2023-10-09T03:36:08;9.75;;;4.40;;
34144;SDS011;69555;53.014;8.886;2023-10-09T03:38:38;7.18;;;3.85;;
34144;SDS011;69555;53.014;8.886;2023-10-09T03:41:05;11.10;;;4.68;;
34144;SDS011;69555;53.014;8.886;2023-10-09T03:43:33;5.63;;;3.60;;
34144;SDS011;69555;53.014;8.886;2023-10-09T03:46:05;12.43;;;4.40;;
34144;SDS011;69555;53.014;8.886;2023-10-09T03:48:39;7.88;;;4.43;;
34144;SDS011;69555;53.014;8.886;2023-10-09T03:51:09;7.03;;;3.58;;
34144;SDS011;69555;53.014;8.886;2023-10-09T03:53:56;8.07;;;3.65;;
34144;SDS011;69555;53.014;8.886;2023-10-09T03:56:23;14.48;;;4.97;;
34144;SDS011;69555;53.014;8.886;2023-10-09T03:58:51;9.85;;;4.13;;
34144;SDS011;69555;53.014;8.886;2023-10-09T04:01:40;7.22;;;3.85;;
34144;SDS011;69555;53.014;8.886;2023-10-09T04:04:07;5.50;;;3.85;;
34144;SDS011;69555;53.014;8.886;2023-10-09T04:06:37;8.15;;;4.15;;
34144;SDS011;69555;53.014;8.886;2023-10-09T04:09:06;9.00;;;4.60;;
34144;SDS011;69555;53.014;8.886;2023-10-09T04:11:49;10.60;;;4.88;;
34144;SDS011;69555;53.014;8.886;2023-10-09T04:14:41;9.68;;;4.78;;
34144;SDS011;69555;53.014;8.886;2023-10-09T04:17:19;10.65;;;5.15;;
34144;SDS011;69555;53.014;8.886;2023-10-09T04:19:59;12.43;;;4.55;;
34144;SDS011;69555;53.014;8.886;2023-10-09T04:22:44;13.10;;;5.20;;
34144;SDS011;69555;53.014;8.886;2023-10-09T04:25:18;19.30;;;5.60;;
34144;SDS011;69555;53.014;8.886;2023-10-09T04:28:19;11.18;;;4.93;;
34144;SDS011;69555;53.014;8.886;2023-10-09T04:30:48;8.70;;;5.20;;
34144;SDS011;69555;53.014;8.886;2023-10-09T04:33:23;9.40;;;5.35;;
34144;SDS011;69555;53.014;8.886;2023-10-09T04:36:04;16.25;;;6.40;;
34144;SDS011;69555;53.014;8.886;2023-10-09T04:38:47;11.95;;;6.38;;
34144;SDS011;69555;53.014;8.886;2023-10-09T04:41:29;16.67;;;6.28;;
34144;SDS011;69555;53.014;8.886;2023-10-09T04:44:12;17.52;;;6.45;;
34144;SDS011;69555;53.014;8.886;2023-10-09T04:49:43;18.02;;;8.48;;
34144;SDS011;69555;53.014;8.886;2023-10-09T04:52:28;25.75;;;8.80;;
34144;SDS011;69555;53.014;8.886;2023-10-09T04:54:55;22.95;;;9.38;;
34144;SDS011;69555;53.014;8.886;2023-10-09T04:57:42;19.35;;;10.02;;
34144;SDS011;69555;53.014;8.886;2023-10-09T05:00:13;25.05;;;11.73;;
34144;SDS011;69555;53.014;8.886;2023-10-09T05:02:52;24.17;;;10.82;;
34144;SDS011;69555;53.014;8.886;2023-10-09T05:05:33;29.33;;;11.27;;
34144;SDS011;69555;53.014;8.886;2023-10-09T05:08:19;25.63;;;11.77;;
34144;SDS011;69555;53.014;8.886;2023-10-09T05:10:57;25.20;;;10.63;;
34144;SDS011;69555;53.014;8.886;2023-10-09T05:13:37;20.25;;;10.20;;
34144;SDS011;69555;53.014;8.886;2023-10-09T05:16:15;30.30;;;12.93;;
34144;SDS011;69555;53.014;8.886;2023-10-09T05:19:04;30.17;;;12.70;;
34144;SDS011;69555;53.014;8.886;2023-10-09T05:21:56;30.27;;;12.80;;
34144;SDS011;69555;53.014;8.886;2023-10-09T05:24:33;27.70;;;13.00;;
34144;SDS011;69555;53.014;8.886;2023-10-09T05:27:11;29.58;;;13.95;;
34144;SDS011;69555;53.014;8.886;2023-10-09T05:29:45;32.45;;;14.60;;
34144;SDS011;69555;53.014;8.886;2023-10-09T05:32:24;32.95;;;14.40;;
34144;SDS011;69555;53.014;8.886;2023-10-09T05:35:00;28.10;;;14.45;;
34144;SDS011;69555;53.014;8.886;2023-10-09T05:37:29;31.75;;;15.63;;
34144;SDS011;69555;53.014;8.886;2023-10-09T05:40:05;37.55;;;14.55;;
34144;SDS011;69555;53.014;8.886;2023-10-09T05:42:41;39.85;;;17.60;;
34144;SDS011;69555;53.014;8.886;2023-10-09T05:45:07;47.63;;;19.10;;
34144;SDS011;69555;53.014;8.886;2023-10-09T05:47:51;38.83;;;17.67;;
34144;SDS011;69555;53.014;8.886;2023-10-09T05:50:30;48.17;;;18.77;;
34144;SDS011;69555;53.014;8.886;2023-10-09T05:52:59;46.65;;;20.33;;
34144;SDS011;69555;53.014;8.886;2023-10-09T05:55:26;56.05;;;22.67;;
34144;SDS011;69555;53.014;8.886;2023-10-09T05:58:10;54.53;;;22.83;;
34144;SDS011;69555;53.014;8.886;2023-10-09T06:01:05;54.58;;;23.30;;
34144;SDS011;69555;53.014;8.886;2023-10-09T06:03:50;59.17;;;24.92;;
34144;SDS011;69555;53.014;8.886;2023-10-09T06:06:29;52.83;;;24.67;;
34144;SDS011;69555;53.014;8.886;2023-10-09T06:09:13;62.25;;;24.02;;
34144;SDS011;69555;53.014;8.886;2023-10-09T06:11:43;76.95;;;25.33;;
34144;SDS011;69555;53.014;8.886;2023-10-09T06:14:35;63.78;;;27.17;;
34144;SDS011;69555;53.014;8.886;2023-10-09T06:17:01;65.68;;;26.63;;
34144;SDS011;69555;53.014;8.886;2023-10-09T06:19:48;70.25;;;29.00;;
34144;SDS011;69555;53.014;8.886;2023-10-09T06:22:14;74.70;;;30.42;;
34144;SDS011;69555;53.014;8.886;2023-10-09T06:24:58;70.18;;;29.58;;
34144;SDS011;69555;53.014;8.886;2023-10-09T06:27:33;71.07;;;28.75;;
34144;SDS011;69555;53.014;8.886;2023-10-09T06:29:59;76.28;;;30.27;;
34144;SDS011;69555;53.014;8.886;2023-10-09T06:32:49;73.05;;;30.27;;
34144;SDS011;69555;53.014;8.886;2023-10-09T06:35:17;76.07;;;31.92;;
34144;SDS011;69555;53.014;8.886;2023-10-09T06:37:50;83.38;;;31.38;;
34144;SDS011;69555;53.014;8.886;2023-10-09T06:43:20;80.50;;;32.78;;
34144;SDS011;69555;53.014;8.886;2023-10-09T06:45:46;83.03;;;34.88;;
34144;SDS011;69555;53.014;8.886;2023-10-09T06:48:19;88.40;;;37.22;;
34144;SDS011;69555;53.014;8.886;2023-10-09T06:50:57;86.03;;;35.05;;
34144;SDS011;69555;53.014;8.886;2023-10-09T06:53:40;89.45;;;36.38;;
34144;SDS011;69555;53.014;8.886;2023-10-09T06:56:27;82.88;;;37.35;;
34144;SDS011;69555;53.014;8.886;2023-10-09T06:58:54;80.30;;;36.20;;
34144;SDS011;69555;53.014;8.886;2023-10-09T07:01:46;97.50;;;38.67;;
34144;SDS011;69555;53.014;8.886;2023-10-09T07:04:32;93.22;;;39.92;;
34144;SDS011;69555;53.014;8.886;2023-10-09T07:06:58;102.30;;;40.38;;
34144;SDS011;69555;53.014;8.886;2023-10-09T07:09:24;93.18;;;40.67;;
34144;SDS011;69555;53.014;8.886;2023-10-09T07:12:07;100.05;;;41.08;;
34144;SDS011;69555;53.014;8.886;2023-10-09T07:14:34;98.68;;;41.00;;
34144;SDS011;69555;53.014;8.886;2023-10-09T07:17:04;105.18;;;41.42;;
34144;SDS011;69555;53.014;8.886;2023-10-09T07:19:53;107.22;;;42.00;;
34144;SDS011;69555;53.014;8.886;2023-10-09T07:22:19;96.10;;;41.55;;
34144;SDS011;69555;53.014;8.886;2023-10-09T07:24:48;106.05;;;42.95;;
34144;SDS011;69555;53.014;8.886;2023-10-09T07:27:28;99.80;;;42.10;;
34144;SDS011;69555;53.014;8.886;2023-10-09T07:30:14;97.80;;;40.92;;
34144;SDS011;69555;53.014;8.886;2023-10-09T07:33:02;100.68;;;42.00;;
34144;SDS011;69555;53.014;8.886;2023-10-09T07:35:35;96.85;;;42.78;;
34144;SDS011;69555;53.014;8.886;2023-10-09T07:38:07;96.35;;;41.08;;
34144;SDS011;69555;53.014;8.886;2023-10-09T07:40:37;95.35;;;39.97;;
34144;SDS011;69555;53.014;8.886;2023-10-09T07:43:25;94.55;;;40.75;;
34144;SDS011;69555;53.014;8.886;2023-10-09T07:46:01;99.00;;;40.47;;
34144;SDS011;69555;53.014;8.886;2023-10-09T07:51:13;92.70;;;40.55;;
34144;SDS011;69555;53.014;8.886;2023-10-09T07:53:39;101.30;;;42.05;;
34144;SDS011;69555;53.014;8.886;2023-10-09T07:56:11;103.47;;;40.78;;
34144;SDS011;69555;53.014;8.886;2023-10-09T07:58:45;87.53;;;39.90;;
34144;SDS011;69555;53.014;8.886;2023-10-09T08:01:14;89.35;;;39.78;;
34144;SDS011;69555;53.014;8.886;2023-10-09T08:04:00;91.35;;;39.67;;
34144;SDS011;69555;53.014;8.886;2023-10-09T08:06:45;84.05;;;39.55;;
34144;SDS011;69555;53.014;8.886;2023-10-09T08:09:12;89.85;;;39.90;;
34144;SDS011;69555;53.014;8.886;2023-10-09T08:11:38;94.65;;;41.42;;
34144;SDS011;69555;53.014;8.886;2023-10-09T08:14:10;85.68;;;40.58;;
34144;SDS011;69555;53.014;8.886;2023-10-09T08:16:55;85.72;;;39.70;;
34144;SDS011;69555;53.014;8.886;2023-10-09T08:19:41;86.90;;;40.72;;
34144;SDS011;69555;53.014;8.886;2023-10-09T08:24:49;86.57;;;40.03;;
34144;SDS011;69555;53.014;8.886;2023-10-09T08:29:55;87.95;;;40.28;;
34144;SDS011;69555;53.014;8.886;2023-10-09T08:32:56;98.18;;;40.88;;
34144;SDS011;69555;53.014;8.886;2023-10-09T08:35:34;82.53;;;40.42;;
34144;SDS011;69555;53.014;8.886;2023-10-09T08:38:12;90.97;;;38.13;;
34144;SDS011;69555;53.014;8.886;2023-10-09T08:40:41;90.88;;;40.13;;
34144;SDS011;69555;53.014;8.886;2023-10-09T08:43:21;99.07;;;38.95;;
34144;SDS011;69555;53.014;8.886;2023-10-09T08:45:47;88.28;;;39.97;;
34144;SDS011;69555;53.014;8.886;2023-10-09T08:48:16;86.82;;;38.90;;
34144;SDS011;69555;53.014;8.886;2023-10-09T08:50:46;77.40;;;35.92;;
34144;SDS011;69555;53.014;8.886;2023-10-09T08:53:14;86.85;;;38.40;;
34144;SDS011;69555;53.014;8.886;2023-10-09T08:55:43;81.35;;;36.80;;
34144;SDS011;69555;53.014;8.886;2023-10-09T08:58:11;92.78;;;38.75;;
34144;SDS011;69555;53.014;8.886;2023-10-09T09:00:45;88.68;;;39.33;;
34144;SDS011;69555;53.014;8.886;2023-10-09T09:03:12;91.78;;;37.65;;
34144;SDS011;69555;53.014;8.886;2023-10-09T09:08:22;88.57;;;37.72;;
34144;SDS011;69555;53.014;8.886;2023-10-09T09:10:56;81.95;;;39.78;;
34144;SDS011;69555;53.014;8.886;2023-10-09T09:13:36;72.25;;;34.42;;
34144;SDS011;69555;53.014;8.886;2023-10-09T09:16:32;70.40;;;34.03;;
34144;SDS011;69555;53.014;8.886;2023-10-09T09:19:04;69.90;;;33.45;;
34144;SDS011;69555;53.014;8.886;2023-10-09T09:21:49;72.10;;;34.42;;
34144;SDS011;69555;53.014;8.886;2023-10-09T09:24:19;75.80;;;34.88;;
34144;SDS011;69555;53.014;8.886;2023-10-09T09:26:56;78.05;;;33.33;;
34144;SDS011;69555;53.014;8.886;2023-10-09T09:29:43;71.88;;;34.15;;
34144;SDS011;69555;53.014;8.886;2023-10-09T09:32:29;67.75;;;30.35;;
34144;SDS011;69555;53.014;8.886;2023-10-09T09:35:00;75.22;;;34.38;;
34144;SDS011;69555;53.014;8.886;2023-10-09T09:37:29;77.43;;;33.22;;
34144;SDS011;69555;53.014;8.886;2023-10-09T09:42:48;70.65;;;31.38;;
34144;SDS011;69555;53.014;8.886;2023-10-09T09:45:14;71.93;;;29.90;;
34144;SDS011;69555;53.014;8.886;2023-10-09T09:47:42;65.63;;;29.50;;
34144;SDS011;69555;53.014;8.886;2023-10-09T09:50:16;72.70;;;31.63;;
34144;SDS011;69555;53.014;8.886;2023-10-09T09:52:49;60.78;;;29.58;;
34144;SDS011;69555;53.014;8.886;2023-10-09T09:55:20;63.17;;;30.98;;
34144;SDS011;69555;53.014;8.886;2023-10-09T09:57:55;69.35;;;32.45;;
34144;SDS011;69555;53.014;8.886;2023-10-09T10:00:23;58.13;;;30.13;;
34144;SDS011;69555;53.014;8.886;2023-10-09T10:03:29;66.90;;;30.95;;
34144;SDS011;69555;53.014;8.886;2023-10-09T10:05:51;57.15;;;30.38;;
34144;SDS011;69555;53.014;8.886;2023-10-09T10:08:18;58.15;;;30.63;;
34144;SDS011;69555;53.014;8.886;2023-10-09T10:10:46;62.47;;;30.80;;
34144;SDS011;69555;53.014;8.886;2023-10-09T10:13:17;58.97;;;31.55;;
34144;SDS011;69555;53.014;8.886;2023-10-09T10:16:00;64.70;;;31.42;;
34144;SDS011;69555;53.014;8.886;2023-10-09T10:18:54;68.50;;;33.15;;
34144;SDS011;69555;53.014;8.886;2023-10-09T10:21:35;66.72;;;32.67;;
34144;SDS011;69555;53.014;8.886;2023-10-09T10:30:12;66.05;;;33.00;;
34144;SDS011;69555;53.014;8.886;2023-10-09T10:32:56;64.40;;;31.70;;
34144;SDS011;69555;53.014;8.886;2023-10-09T10:35:24;69.88;;;33.47;;
34144;SDS011;69555;53.014;8.886;2023-10-09T10:41:13;56.65;;;31.05;;
34144;SDS011;69555;53.014;8.886;2023-10-09T10:43:41;58.53;;;32.87;;
34144;SDS011;69555;53.014;8.886;2023-10-09T10:46:16;71.25;;;32.45;;
34144;SDS011;69555;53.014;8.886;2023-10-09T10:48:55;68.90;;;33.45;;
34144;SDS011;69555;53.014;8.886;2023-10-09T10:51:24;68.55;;;33.40;;
34144;SDS011;69555;53.014;8.886;2023-10-09T10:54:01;62.83;;;33.78;;
34144;SDS011;69555;53.014;8.886;2023-10-09T10:56:48;61.40;;;31.67;;
34144;SDS011;69555;53.014;8.886;2023-10-09T10:59:24;59.13;;;33.60;;
34144;SDS011;69555;53.014;8.886;2023-10-09T11:01:52;56.78;;;30.02;;
34144;SDS011;69555;53.014;8.886;2023-10-09T11:04:25;63.03;;;33.83;;
34144;SDS011;69555;53.014;8.886;2023-10-09T11:06:55;69.13;;;33.85;;
34144;SDS011;69555;53.014;8.886;2023-10-09T11:12:57;58.08;;;32.45;;
34144;SDS011;69555;53.014;8.886;2023-10-09T11:15:30;58.72;;;30.35;;
34144;SDS011;69555;53.014;8.886;2023-10-09T11:18:20;55.38;;;29.33;;
34144;SDS011;69555;53.014;8.886;2023-10-09T11:20:55;59.20;;;28.90;;
34144;SDS011;69555;53.014;8.886;2023-10-09T11:23:28;68.53;;;29.52;;
34144;SDS011;69555;53.014;8.886;2023-10-09T11:26:02;51.38;;;27.38;;
34144;SDS011;69555;53.014;8.886;2023-10-09T11:31:42;56.75;;;25.95;;
34144;SDS011;69555;53.014;8.886;2023-10-09T11:34:33;54.70;;;25.52;;
34144;SDS011;69555;53.014;8.886;2023-10-09T11:39:40;52.00;;;23.02;;
34144;SDS011;69555;53.014;8.886;2023-10-09T11:42:18;51.35;;;24.25;;
34144;SDS011;69555;53.014;8.886;2023-10-09T11:45:01;55.08;;;25.00;;
34144;SDS011;69555;53.014;8.886;2023-10-09T11:47:36;43.80;;;21.23;;
34144;SDS011;69555;53.014;8.886;2023-10-09T11:50:10;42.30;;;20.42;;
34144;SDS011;69555;53.014;8.886;2023-10-09T11:52:36;37.25;;;19.38;;
34144;SDS011;69555;53.014;8.886;2023-10-09T11:55:10;32.40;;;17.67;;
34144;SDS011;69555;53.014;8.886;2023-10-09T11:57:40;30.30;;;16.77;;
34144;SDS011;69555;53.014;8.886;2023-10-09T12:00:06;29.98;;;15.88;;
34144;SDS011;69555;53.014;8.886;2023-10-09T12:03:10;34.53;;;14.73;;
34144;SDS011;69555;53.014;8.886;2023-10-09T12:05:36;22.67;;;13.32;;
34144;SDS011;69555;53.014;8.886;2023-10-09T12:08:03;27.38;;;13.45;;
34144;SDS011;69555;53.014;8.886;2023-10-09T12:10:33;20.63;;;11.55;;
34144;SDS011;69555;53.014;8.886;2023-10-09T12:12:59;19.98;;;11.65;;
34144;SDS011;69555;53.014;8.886;2023-10-09T12:15:24;20.80;;;11.00;;
34144;SDS011;69555;53.014;8.886;2023-10-09T12:17:50;20.00;;;9.98;;
34144;SDS011;69555;53.014;8.886;2023-10-09T12:20:18;19.30;;;9.85;;
34144;SDS011;69555;53.014;8.886;2023-10-09T12:23:00;14.60;;;10.32;;
34144;SDS011;69555;53.014;8.886;2023-10-09T12:25:29;16.52;;;8.27;;
34144;SDS011;69555;53.014;8.886;2023-10-09T12:27:56;12.73;;;8.05;;
34144;SDS011;69555;53.014;8.886;2023-10-09T12:30:26;15.23;;;8.10;;
34144;SDS011;69555;53.014;8.886;2023-10-09T12:32:55;15.32;;;7.47;;
34144;SDS011;69555;53.014;8.886;2023-10-09T12:35:23;14.07;;;6.22;;
34144;SDS011;69555;53.014;8.886;2023-10-09T12:37:51;16.42;;;6.45;;
34144;SDS011;69555;53.014;8.886;2023-10-09T12:40:24;9.95;;;6.07;;
34144;SDS011;69555;53.014;8.886;2023-10-09T12:42:55;12.65;;;5.40;;
34144;SDS011;69555;53.014;8.886;2023-10-09T12:45:25;11.68;;;5.35;;
34144;SDS011;69555;53.014;8.886;2023-10-09T12:47:53;17.90;;;4.90;;
34144;SDS011;69555;53.014;8.886;2023-10-09T12:50:30;11.52;;;4.88;;
34144;SDS011;69555;53.014;8.886;2023-10-09T12:53:00;12.93;;;4.50;;
34144;SDS011;69555;53.014;8.886;2023-10-09T12:55:36;10.63;;;4.28;;
34144;SDS011;69555;53.014;8.886;2023-10-09T12:58:07;10.70;;;3.80;;
34144;SDS011;69555;53.014;8.886;2023-10-09T13:00:40;8.88;;;4.97;;
34144;SDS011;69555;53.014;8.886;2023-10-09T13:03:13;12.00;;;4.10;;
34144;SDS011;69555;53.014;8.886;2023-10-09T13:05:46;9.40;;;4.70;;
34144;SDS011;69555;53.014;8.886;2023-10-09T13:08:22;10.15;;;3.80;;
34144;SDS011;69555;53.014;8.886;2023-10-09T13:11:03;9.77;;;3.83;;
34144;SDS011;69555;53.014;8.886;2023-10-09T13:13:47;12.57;;;4.53;;
34144;SDS011;69555;53.014;8.886;2023-10-09T13:16:19;11.52;;;3.72;;
34144;SDS011;69555;53.014;8.886;2023-10-09T13:18:50;7.50;;;3.90;;
34144;SDS011;69555;53.014;8.886;2023-10-09T13:21:20;8.90;;;3.70;;
34144;SDS011;69555;53.014;8.886;2023-10-09T13:23:51;10.45;;;3.72;;
34144;SDS011;69555;53.014;8.886;2023-10-09T13:26:21;8.90;;;3.97;;
34144;SDS011;69555;53.014;8.886;2023-10-09T13:28:53;7.47;;;3.60;;
34144;SDS011;69555;53.014;8.886;2023-10-09T13:31:20;10.10;;;3.40;;
34144;SDS011;69555;53.014;8.886;2023-10-09T13:33:46;8.95;;;3.13;;
34144;SDS011;69555;53.014;8.886;2023-10-09T13:36:13;9.75;;;3.20;;
34144;SDS011;69555;53.014;8.886;2023-10-09T13:38:52;9.77;;;3.17;;
34144;SDS011;69555;53.014;8.886;2023-10-09T13:41:21;9.05;;;3.97;;
34144;SDS011;69555;53.014;8.886;2023-10-09T13:46:16;8.18;;;3.67;;
34144;SDS011;69555;53.014;8.886;2023-10-09T13:48:43;11.52;;;3.80;;
34144;SDS011;69555;53.014;8.886;2023-10-09T13:51:10;12.20;;;3.83;;
34144;SDS011;69555;53.014;8.886;2023-10-09T13:53:43;10.50;;;3.78;;
34144;SDS011;69555;53.014;8.886;2023-10-09T13:56:12;11.25;;;3.80;;
34144;SDS011;69555;53.014;8.886;2023-10-09T13:58:44;8.43;;;3.33;;
34144;SDS011;69555;53.014;8.886;2023-10-09T14:01:11;12.32;;;3.13;;
34144;SDS011;69555;53.014;8.886;2023-10-09T14:03:42;12.88;;;3.15;;
34144;SDS011;69555;53.014;8.886;2023-10-09T14:06:13;13.68;;;3.70;;
34144;SDS011;69555;53.014;8.886;2023-10-09T14:08:39;13.55;;;3.42;;
34144;SDS011;69555;53.014;8.886;2023-10-09T14:11:07;16.63;;;3.20;;
34144;SDS011;69555;53.014;8.886;2023-10-09T14:13:38;9.57;;;3.05;;
34144;SDS011;69555;53.014;8.886;2023-10-09T14:16:04;11.18;;;2.97;;
34144;SDS011;69555;53.014;8.886;2023-10-09T14:18:31;10.73;;;2.90;;
34144;SDS011;69555;53.014;8.886;2023-10-09T14:21:00;11.70;;;2.90;;
34144;SDS011;69555;53.014;8.886;2023-10-09T14:23:29;10.32;;;3.35;;
34144;SDS011;69555;53.014;8.886;2023-10-09T14:28:26;13.38;;;3.65;;
34144;SDS011;69555;53.014;8.886;2023-10-09T14:30:54;10.05;;;3.65;;
34144;SDS011;69555;53.014;8.886;2023-10-09T14:33:24;13.85;;;3.63;;
34144;SDS011;69555;53.014;8.886;2023-10-09T14:35:52;6.85;;;2.80;;
34144;SDS011;69555;53.014;8.886;2023-10-09T14:38:19;14.30;;;3.75;;
34144;SDS011;69555;53.014;8.886;2023-10-09T14:40:51;15.38;;;3.78;;
34144;SDS011;69555;53.014;8.886;2023-10-09T14:43:22;8.15;;;3.05;;
34144;SDS011;69555;53.014;8.886;2023-10-09T14:45:53;9.93;;;4.03;;
34144;SDS011;69555;53.014;8.886;2023-10-09T14:48:19;17.63;;;3.28;;
34144;SDS011;69555;53.014;8.886;2023-10-09T14:50:51;10.68;;;4.00;;
34144;SDS011;69555;53.014;8.886;2023-10-09T14:53:22;17.30;;;3.97;;
34144;SDS011;69555;53.014;8.886;2023-10-09T14:55:55;7.93;;;3.35;;
34144;SDS011;69555;53.014;8.886;2023-10-09T14:58:21;9.35;;;3.00;;
34144;SDS011;69555;53.014;8.886;2023-10-09T15:00:50;8.38;;;3.15;;
34144;SDS011;69555;53.014;8.886;2023-10-09T15:03:16;7.93;;;2.90;;
34144;SDS011;69555;53.014;8.886;2023-10-09T15:05:44;13.25;;;2.80;;
34144;SDS011;69555;53.014;8.886;2023-10-09T15:08:10;16.38;;;3.53;;
34144;SDS011;69555;53.014;8.886;2023-10-09T15:10:47;6.88;;;2.80;;
34144;SDS011;69555;53.014;8.886;2023-10-09T15:13:13;7.55;;;3.40;;
34144;SDS011;69555;53.014;8.886;2023-10-09T15:15:45;9.32;;;2.92;;
34144;SDS011;69555;53.014;8.886;2023-10-09T15:18:16;9.20;;;2.90;;
34144;SDS011;69555;53.014;8.886;2023-10-09T15:20:43;13.75;;;3.33;;
34144;SDS011;69555;53.014;8.886;2023-10-09T15:23:10;12.63;;;2.65;;
34144;SDS011;69555;53.014;8.886;2023-10-09T15:25:36;9.30;;;2.75;;
34144;SDS011;69555;53.014;8.886;2023-10-09T15:28:08;7.10;;;2.80;;
34144;SDS011;69555;53.014;8.886;2023-10-09T15:30:35;8.52;;;2.88;;
34144;SDS011;69555;53.014;8.886;2023-10-09T15:33:03;9.48;;;2.45;;
34144;SDS011;69555;53.014;8.886;2023-10-09T15:35:33;9.88;;;2.47;;
34144;SDS011;69555;53.014;8.886;2023-10-09T15:37:59;8.55;;;2.85;;
34144;SDS011;69555;53.014;8.886;2023-10-09T15:40:32;12.05;;;3.28;;
34144;SDS011;69555;53.014;8.886;2023-10-09T15:43:02;14.48;;;3.55;;
34144;SDS011;69555;53.014;8.886;2023-10-09T15:45:29;10.98;;;3.33;;
34144;SDS011;69555;53.014;8.886;2023-10-09T15:47:56;10.65;;;3.20;;
34144;SDS011;69555;53.014;8.886;2023-10-09T15:50:24;9.20;;;3.50;;
34144;SDS011;69555;53.014;8.886;2023-10-09T15:52:53;9.38;;;3.67;;
34144;SDS011;69555;53.014;8.886;2023-10-09T15:55:20;10.45;;;3.30;;
34144;SDS011;69555;53.014;8.886;2023-10-09T15:57:49;8.80;;;2.97;;
34144;SDS011;69555;53.014;8.886;2023-10-09T16:00:17;7.78;;;2.78;;